createdAt,value
2023-12-21T00:01:37.494Z,66.92
2023-12-21T00:04:05.212Z,66.82
2023-12-21T00:06:51.261Z,65.63
2023-12-21T00:09:20.079Z,64.95
2023-12-21T00:11:47.322Z,64.40
2023-12-21T00:14:14.493Z,64.37
2023-12-21T00:16:42.058Z,64.66
2023-12-21T00:19:09.415Z,64.49
2023-12-21T00:21:36.686Z,64.01
2023-12-21T00:24:04.173Z,64.35
2023-12-21T00:26:31.415Z,64.13
2023-12-21T00:28:58.828Z,64.52
2023-12-21T00:31:26.676Z,64.55
2023-12-21T00:33:54.013Z,64.34
2023-12-21T00:36:21.315Z,64.23
2023-12-21T00:38:48.787Z,63.97
2023-12-21T00:41:15.978Z,63.84
2023-12-21T00:43:43.196Z,63.63
2023-12-21T00:46:10.671Z,63.34
2023-12-21T00:48:38.004Z,63.27
2023-12-21T00:51:06.959Z,62.36
2023-12-21T00:53:34.618Z,62.42
2023-12-21T00:56:01.801Z,61.13
2023-12-21T00:58:29.012Z,61.58
2023-12-21T01:00:57.369Z,61.00
2023-12-21T01:03:24.728Z,60.59
2023-12-21T01:05:52.131Z,60.04
2023-12-21T01:08:19.592Z,60.53
2023-12-21T01:10:46.757Z,60.67
2023-12-21T01:13:13.954Z,59.07
2023-12-21T01:15:42.270Z,58.77
2023-12-21T01:18:09.548Z,59.23
2023-12-21T01:20:36.797Z,59.09
2023-12-21T01:23:04.315Z,58.50
2023-12-21T01:25:31.546Z,57.90
2023-12-21T01:27:58.856Z,58.11
2023-12-21T01:30:26.411Z,58.07
2023-12-21T01:32:54.560Z,58.28
2023-12-21T01:35:22.163Z,57.64
2023-12-21T01:37:50.073Z,57.76
2023-12-21T01:40:17.730Z,57.53
2023-12-21T01:42:46.104Z,58.01
2023-12-21T01:45:13.743Z,58.63
2023-12-21T01:47:41.095Z,58.61
2023-12-21T01:50:08.475Z,58.42
2023-12-21T01:52:36.091Z,58.51
2023-12-21T01:55:03.577Z,58.70
2023-12-21T01:57:30.882Z,58.56
2023-12-21T01:59:58.524Z,58.83
2023-12-21T02:02:26.017Z,58.25
2023-12-21T02:04:53.674Z,58.21
2023-12-21T02:07:20.912Z,58.28
2023-12-21T02:09:48.092Z,58.13
2023-12-21T02:12:15.520Z,58.18
2023-12-21T02:14:42.679Z,58.22
2023-12-21T02:17:16.669Z,58.04
2023-12-21T02:20:03.055Z,57.34
2023-12-21T02:22:30.421Z,57.43
2023-12-21T02:24:58.003Z,56.96
2023-12-21T02:27:25.238Z,55.83
2023-12-21T02:29:52.517Z,56.30
2023-12-21T02:32:20.064Z,55.94
2023-12-21T02:34:47.353Z,55.98
2023-12-21T02:37:14.584Z,55.83
2023-12-21T02:39:42.052Z,55.67
2023-12-21T02:42:09.223Z,55.83
2023-12-21T02:44:36.732Z,55.88
2023-12-21T02:47:04.254Z,55.68
2023-12-21T02:49:31.526Z,55.83
2023-12-21T02:51:58.829Z,55.56
2023-12-21T02:54:27.529Z,55.57
2023-12-21T02:56:54.749Z,55.66
2023-12-21T02:59:21.905Z,55.82
2023-12-21T03:01:49.376Z,55.56
2023-12-21T03:04:16.575Z,54.93
2023-12-21T03:06:44.671Z,54.53
2023-12-21T03:09:12.143Z,54.97
2023-12-21T03:11:39.319Z,54.70
2023-12-21T03:14:06.508Z,54.09
2023-12-21T03:16:35.157Z,54.67
2023-12-21T03:19:02.489Z,54.67
2023-12-21T03:21:30.000Z,55.02
2023-12-21T03:23:57.816Z,55.15
2023-12-21T03:26:25.269Z,55.81
2023-12-21T03:28:52.432Z,55.62
2023-12-21T03:31:19.998Z,55.12
2023-12-21T03:33:47.574Z,55.71
2023-12-21T03:36:14.855Z,56.16
2023-12-21T03:38:42.380Z,55.60
2023-12-21T03:41:09.554Z,55.38
2023-12-21T03:43:37.414Z,56.03
2023-12-21T03:46:08.507Z,56.17
2023-12-21T03:48:37.196Z,56.21
2023-12-21T03:51:04.856Z,56.21
2023-12-21T03:53:32.099Z,56.24
2023-12-21T03:55:59.363Z,56.84
2023-12-21T03:58:26.798Z,56.84
2023-12-21T04:00:53.991Z,56.93
2023-12-21T04:03:21.538Z,56.89
2023-12-21T04:05:48.773Z,56.88
2023-12-21T04:08:16.428Z,56.90
2023-12-21T04:10:44.109Z,56.78
2023-12-21T04:13:11.375Z,56.94
2023-12-21T04:15:38.562Z,57.03
2023-12-21T04:18:06.228Z,56.99
2023-12-21T04:20:33.499Z,56.81
2023-12-21T04:23:00.656Z,56.82
2023-12-21T04:25:28.180Z,56.17
2023-12-21T04:27:55.361Z,56.70
2023-12-21T04:30:22.639Z,56.13
2023-12-21T04:32:50.406Z,56.42
2023-12-21T04:35:18.002Z,57.02
2023-12-21T04:37:45.252Z,59.31
2023-12-21T04:40:12.844Z,58.92
2023-12-21T04:42:40.080Z,58.94
2023-12-21T04:45:07.438Z,58.93
2023-12-21T04:47:34.939Z,58.24
2023-12-21T04:50:02.183Z,58.53
2023-12-21T04:52:29.440Z,57.78
2023-12-21T04:54:56.953Z,58.54
2023-12-21T04:57:24.715Z,58.62
2023-12-21T04:59:51.893Z,59.38
2023-12-21T05:02:19.373Z,58.31
2023-12-21T05:04:46.719Z,58.42
2023-12-21T05:07:13.933Z,58.74
2023-12-21T05:09:41.409Z,58.86
2023-12-21T05:12:08.741Z,59.20
2023-12-21T05:14:35.938Z,58.59
2023-12-21T05:17:04.423Z,59.16
2023-12-21T05:19:32.535Z,58.61
2023-12-21T05:21:59.780Z,57.94
2023-12-21T05:24:27.271Z,58.44
2023-12-21T05:26:54.760Z,58.56
2023-12-21T05:29:21.933Z,58.18
2023-12-21T05:31:49.570Z,58.43
2023-12-21T05:34:16.925Z,58.28
2023-12-21T05:36:44.179Z,58.47
2023-12-21T05:39:17.924Z,57.47
2023-12-21T05:41:46.448Z,57.91
2023-12-21T05:44:14.164Z,58.41
2023-12-21T05:46:42.774Z,60.36
2023-12-21T05:49:10.595Z,59.33
2023-12-21T05:51:38.097Z,58.98
2023-12-21T05:54:05.395Z,59.42
2023-12-21T05:56:32.687Z,59.40
2023-12-21T05:59:00.209Z,60.54
2023-12-21T06:01:28.317Z,60.43
2023-12-21T06:03:56.811Z,59.29
2023-12-21T06:06:24.269Z,59.04
2023-12-21T06:08:51.544Z,59.55
2023-12-21T06:11:19.036Z,59.60
2023-12-21T06:13:46.333Z,59.85
2023-12-21T06:16:15.461Z,61.06
2023-12-21T06:18:43.046Z,61.07
2023-12-21T06:21:10.278Z,60.92
2023-12-21T06:23:37.552Z,60.44
2023-12-21T06:26:05.149Z,60.24
2023-12-21T06:28:32.367Z,60.32
2023-12-21T06:30:59.719Z,60.44
2023-12-21T06:33:28.122Z,59.38
2023-12-21T06:35:56.444Z,60.35
2023-12-21T06:38:23.657Z,60.52
2023-12-21T06:40:51.491Z,61.00
2023-12-21T06:43:19.554Z,61.26
2023-12-21T06:45:48.800Z,60.96
2023-12-21T06:48:16.491Z,61.56
2023-12-21T06:50:43.751Z,61.97
2023-12-21T06:53:16.522Z,62.35
2023-12-21T06:55:44.298Z,62.24
2023-12-21T06:58:11.874Z,62.10
2023-12-21T07:00:39.145Z,62.19
2023-12-21T07:03:07.024Z,62.03
2023-12-21T07:05:34.499Z,62.09
2023-12-21T07:08:01.707Z,61.93
2023-12-21T07:10:29.201Z,62.45
2023-12-21T07:12:56.486Z,62.10
2023-12-21T07:15:23.707Z,61.83
2023-12-21T07:17:51.236Z,61.45
2023-12-21T07:20:21.595Z,59.39
2023-12-21T07:22:49.229Z,59.70
2023-12-21T07:25:17.301Z,60.00
2023-12-21T07:27:44.608Z,61.04
2023-12-21T07:30:12.390Z,62.08
2023-12-21T07:32:41.879Z,62.42
2023-12-21T07:35:09.305Z,62.33
2023-12-21T07:37:36.536Z,62.86
2023-12-21T07:40:04.639Z,62.84
2023-12-21T07:42:32.012Z,62.54
2023-12-21T07:44:59.197Z,63.16
2023-12-21T07:47:26.619Z,62.87
2023-12-21T07:49:55.471Z,62.91
2023-12-21T07:52:22.757Z,63.05
2023-12-21T07:54:50.242Z,62.34
2023-12-21T07:57:17.551Z,62.51
2023-12-21T07:59:45.286Z,61.99
2023-12-21T08:02:12.756Z,62.73
2023-12-21T08:04:41.305Z,64.40
2023-12-21T08:07:08.768Z,65.13
2023-12-21T08:09:36.097Z,65.42
2023-12-21T08:12:03.681Z,64.12
2023-12-21T08:14:33.099Z,64.64
2023-12-21T08:17:02.440Z,64.50
2023-12-21T08:19:30.028Z,63.25
2023-12-21T08:21:57.350Z,62.42
2023-12-21T08:24:24.562Z,62.68
2023-12-21T08:26:52.131Z,62.74
2023-12-21T08:29:19.361Z,61.47
2023-12-21T08:31:46.602Z,61.70
2023-12-21T08:34:14.852Z,61.39
2023-12-21T08:36:42.143Z,61.42
2023-12-21T08:39:09.501Z,60.85
2023-12-21T08:41:37.402Z,60.33
2023-12-21T08:44:04.823Z,59.91
2023-12-21T08:46:32.051Z,60.09
2023-12-21T08:48:59.563Z,60.60
2023-12-21T08:51:27.424Z,60.08
2023-12-21T08:53:54.650Z,59.96
2023-12-21T08:56:23.260Z,60.43
2023-12-21T08:58:53.795Z,60.09
2023-12-21T09:01:21.131Z,60.14
2023-12-21T09:03:48.787Z,59.99
2023-12-21T09:06:16.138Z,60.61
2023-12-21T09:08:43.410Z,59.74
2023-12-21T09:11:10.843Z,59.45
2023-12-21T09:13:38.086Z,58.78
2023-12-21T09:16:05.462Z,58.19
2023-12-21T09:18:33.099Z,58.99
2023-12-21T09:21:00.339Z,59.06
2023-12-21T09:23:27.485Z,59.23
2023-12-21T09:25:55.567Z,59.24
2023-12-21T09:28:23.760Z,58.70
2023-12-21T09:30:51.021Z,59.18
2023-12-21T09:33:20.149Z,58.19
2023-12-21T09:35:47.557Z,58.99
2023-12-21T09:38:14.721Z,59.81
2023-12-21T09:40:42.299Z,59.47
2023-12-21T09:43:15.053Z,58.70
2023-12-21T09:45:43.539Z,58.48
2023-12-21T09:48:11.480Z,58.60
2023-12-21T09:50:38.832Z,58.99
2023-12-21T09:53:06.303Z,58.46
2023-12-21T09:55:33.574Z,58.51
2023-12-21T09:58:01.054Z,58.13
2023-12-21T10:00:31.140Z,58.10
2023-12-21T10:02:58.793Z,58.23
2023-12-21T10:05:26.508Z,57.64
2023-12-21T10:07:53.786Z,57.49
2023-12-21T10:10:21.491Z,58.07
2023-12-21T10:12:49.030Z,57.41
2023-12-21T10:15:18.432Z,57.74
2023-12-21T10:17:46.359Z,57.42
2023-12-21T10:20:14.338Z,57.67
2023-12-21T10:22:42.318Z,57.10
2023-12-21T10:25:13.595Z,57.19
2023-12-21T10:27:41.972Z,57.01
2023-12-21T10:30:09.423Z,56.95
2023-12-21T10:32:36.839Z,56.79
2023-12-21T10:35:06.072Z,57.53
2023-12-21T10:37:34.157Z,57.11
2023-12-21T10:40:02.028Z,56.70
2023-12-21T10:42:30.114Z,56.80
2023-12-21T10:44:57.338Z,56.89
2023-12-21T10:47:27.009Z,56.75
2023-12-21T10:49:54.657Z,56.39
2023-12-21T10:52:22.207Z,56.80
2023-12-21T10:54:49.795Z,56.37
2023-12-21T10:57:17.537Z,56.68
2023-12-21T10:59:44.856Z,56.20
2023-12-21T11:02:13.211Z,56.41
2023-12-21T11:04:40.942Z,57.05
2023-12-21T11:07:09.335Z,56.64
2023-12-21T11:09:37.941Z,56.73
2023-12-21T11:12:06.406Z,56.59
2023-12-21T11:14:33.737Z,56.69
2023-12-21T11:17:01.390Z,61.37
2023-12-21T11:19:30.844Z,56.89
2023-12-21T11:21:58.139Z,56.51
2023-12-21T11:24:25.607Z,56.15
2023-12-21T11:26:53.357Z,56.12
2023-12-21T11:29:28.323Z,55.49
2023-12-21T11:31:56.558Z,55.25
2023-12-21T11:34:25.938Z,55.53
2023-12-21T11:36:59.666Z,55.27
2023-12-21T11:39:27.153Z,54.97
2023-12-21T11:41:58.852Z,54.28
2023-12-21T11:44:38.689Z,54.46
2023-12-21T11:47:09.138Z,54.46
2023-12-21T11:49:38.601Z,54.15
2023-12-21T11:52:06.098Z,54.05
2023-12-21T11:54:33.298Z,54.07
2023-12-21T11:57:10.574Z,54.13
2023-12-21T11:59:38.185Z,54.63
2023-12-21T12:02:07.202Z,54.74
2023-12-21T12:04:34.702Z,55.12
2023-12-21T12:07:03.077Z,55.61
2023-12-21T12:09:30.302Z,55.96
2023-12-21T12:11:57.749Z,56.90
2023-12-21T12:14:24.919Z,57.44
2023-12-21T12:16:52.218Z,57.56
2023-12-21T12:19:19.938Z,57.19
2023-12-21T12:21:47.246Z,57.87
2023-12-21T12:24:16.172Z,57.78
2023-12-21T12:26:43.650Z,59.12
2023-12-21T12:29:14.659Z,59.49
2023-12-21T12:31:41.928Z,60.15
2023-12-21T12:34:09.479Z,60.26
2023-12-21T12:36:36.991Z,59.63
2023-12-21T12:39:04.267Z,61.18
2023-12-21T12:41:31.898Z,59.01
2023-12-21T12:43:59.657Z,58.62
2023-12-21T12:46:28.237Z,58.52
2023-12-21T12:48:56.177Z,57.85
2023-12-21T12:51:23.904Z,57.86
2023-12-21T12:53:53.152Z,57.68
2023-12-21T12:56:20.711Z,58.06
2023-12-21T12:58:56.476Z,58.62
2023-12-21T13:01:28.336Z,58.88
2023-12-21T13:03:57.419Z,57.86
2023-12-21T13:06:24.809Z,57.60
2023-12-21T13:08:52.348Z,57.58
2023-12-21T13:11:19.805Z,58.13
2023-12-21T13:13:47.980Z,58.58
2023-12-21T13:16:19.590Z,58.99
2023-12-21T13:18:46.902Z,58.68
2023-12-21T13:21:14.465Z,59.17
2023-12-21T13:23:42.205Z,59.83
2023-12-21T13:26:09.493Z,60.77
2023-12-21T13:28:40.005Z,61.29
2023-12-21T13:31:07.585Z,61.20
2023-12-21T13:33:34.876Z,61.38
2023-12-21T13:36:02.701Z,61.32
2023-12-21T13:38:30.133Z,61.49
2023-12-21T13:40:57.369Z,61.32
2023-12-21T13:43:24.606Z,60.99
2023-12-21T13:45:52.074Z,61.15
2023-12-21T13:48:22.774Z,61.82
2023-12-21T13:50:50.141Z,61.27
2023-12-21T13:53:17.627Z,62.05
2023-12-21T13:55:44.964Z,61.82
2023-12-21T13:58:12.342Z,61.40
2023-12-21T14:00:39.818Z,61.02
2023-12-21T14:03:07.320Z,60.22
2023-12-21T14:05:34.631Z,60.43
2023-12-21T14:08:01.996Z,61.36
2023-12-21T14:10:29.835Z,60.79
2023-12-21T14:12:58.846Z,60.94
2023-12-21T14:15:26.594Z,60.97
2023-12-21T14:17:54.206Z,61.08
2023-12-21T14:20:23.946Z,61.22
2023-12-21T14:22:51.649Z,61.43
2023-12-21T14:25:19.156Z,61.45
2023-12-21T14:27:47.660Z,61.53
2023-12-21T14:30:15.004Z,61.51
2023-12-21T14:32:42.627Z,61.96
2023-12-21T14:35:10.405Z,62.12
2023-12-21T14:37:37.849Z,61.57
2023-12-21T14:40:06.744Z,61.79
2023-12-21T14:42:34.035Z,60.74
2023-12-21T14:45:01.343Z,60.51
2023-12-21T14:47:31.276Z,61.08
2023-12-21T14:49:58.772Z,61.68
2023-12-21T14:52:25.996Z,60.93
2023-12-21T14:54:53.483Z,61.04
2023-12-21T14:57:20.663Z,61.59
2023-12-21T14:59:48.158Z,61.03
2023-12-21T15:02:15.631Z,60.70
2023-12-21T15:04:42.996Z,61.01
2023-12-21T15:07:10.265Z,61.65
2023-12-21T15:09:37.704Z,62.29
2023-12-21T15:12:05.127Z,65.18
2023-12-21T15:14:32.395Z,63.11
2023-12-21T15:17:00.619Z,62.53
2023-12-21T15:19:32.457Z,63.05
2023-12-21T15:22:01.708Z,62.28
2023-12-21T15:24:29.046Z,62.63
2023-12-21T15:26:56.296Z,62.63
2023-12-21T15:29:23.721Z,63.16
2023-12-21T15:31:51.019Z,63.54
2023-12-21T15:34:18.487Z,63.47
2023-12-21T15:36:46.450Z,62.56
2023-12-21T15:39:15.398Z,61.79
2023-12-21T15:41:42.908Z,61.97
2023-12-21T15:44:10.434Z,61.64
2023-12-21T15:46:37.626Z,62.10
2023-12-21T15:49:04.970Z,61.93
2023-12-21T15:51:32.453Z,62.48
2023-12-21T15:53:59.650Z,62.49
2023-12-21T15:56:27.894Z,62.98
2023-12-21T15:58:55.698Z,63.35
2023-12-21T16:01:23.079Z,62.83
2023-12-21T16:03:50.602Z,63.28
2023-12-21T16:06:17.818Z,64.51
2023-12-21T16:08:45.164Z,65.49
2023-12-21T16:11:12.889Z,65.40
2023-12-21T16:13:40.196Z,65.98
2023-12-21T16:16:07.470Z,65.67
2023-12-21T16:18:34.973Z,65.63
2023-12-21T16:21:02.142Z,65.14
2023-12-21T16:23:29.293Z,65.69
2023-12-21T16:25:59.305Z,65.87
2023-12-21T16:28:26.627Z,65.48
2023-12-21T16:30:53.926Z,65.66
2023-12-21T16:33:21.890Z,65.42
2023-12-21T16:35:49.158Z,65.72
2023-12-21T16:38:16.800Z,66.31
2023-12-21T16:40:44.402Z,65.86
2023-12-21T16:43:11.688Z,65.79
2023-12-21T16:45:39.120Z,66.09
2023-12-21T16:48:06.875Z,66.66
2023-12-21T16:50:34.148Z,67.35
2023-12-21T16:53:02.173Z,67.75
2023-12-21T16:55:29.755Z,68.22
2023-12-21T16:57:57.665Z,68.59
2023-12-21T17:00:24.840Z,68.48
2023-12-21T17:02:52.410Z,68.27
2023-12-21T17:05:19.851Z,68.52
2023-12-21T17:07:47.954Z,69.73
2023-12-21T17:10:15.686Z,71.42
2023-12-21T17:12:42.933Z,72.67
2023-12-21T17:15:10.796Z,73.87
2023-12-21T17:17:38.344Z,73.85
2023-12-21T17:20:06.261Z,73.85
2023-12-21T17:22:33.502Z,73.25
2023-12-21T17:25:02.198Z,73.08
2023-12-21T17:27:29.452Z,72.91
2023-12-21T17:29:56.599Z,72.37
2023-12-21T17:32:24.047Z,71.45
2023-12-21T17:34:51.240Z,71.98
2023-12-21T17:37:18.413Z,71.27
2023-12-21T17:39:45.911Z,71.16
2023-12-21T17:42:13.082Z,70.56
2023-12-21T17:44:40.333Z,70.92
2023-12-21T17:47:07.913Z,70.57
2023-12-21T17:49:35.278Z,70.96
2023-12-21T17:52:02.588Z,70.70
2023-12-21T17:54:30.456Z,70.07
2023-12-21T17:56:57.690Z,69.82
2023-12-21T17:59:24.917Z,69.68
2023-12-21T18:01:52.454Z,69.27
2023-12-21T18:04:19.955Z,68.68
2023-12-21T18:06:47.286Z,68.82
2023-12-21T18:09:15.014Z,69.02
2023-12-21T18:11:45.817Z,68.92
2023-12-21T18:14:13.299Z,69.43
2023-12-21T18:16:41.119Z,68.69
2023-12-21T18:19:09.686Z,68.70
2023-12-21T18:21:37.701Z,68.36
2023-12-21T18:24:05.746Z,68.93
2023-12-21T18:26:34.162Z,68.78
2023-12-21T18:29:02.079Z,68.10
2023-12-21T18:31:29.585Z,68.55
2023-12-21T18:33:59.107Z,69.06
2023-12-21T18:36:26.941Z,69.62
2023-12-21T18:38:55.110Z,69.96
2023-12-21T18:41:23.579Z,69.52
2023-12-21T18:43:51.658Z,69.19
2023-12-21T18:46:19.866Z,68.88
2023-12-21T18:48:48.566Z,69.24
2023-12-21T18:51:16.930Z,69.45
2023-12-21T18:53:45.583Z,69.75
2023-12-21T18:56:14.967Z,70.59
2023-12-21T18:58:43.155Z,70.58
2023-12-21T19:01:14.201Z,70.71
2023-12-21T19:03:43.690Z,70.92
2023-12-21T19:06:12.464Z,70.60
2023-12-21T19:08:42.880Z,71.85
2023-12-21T19:11:18.550Z,70.14
2023-12-21T19:13:46.974Z,70.65
2023-12-21T19:16:16.156Z,70.31
2023-12-21T19:18:44.613Z,70.02
2023-12-21T19:21:12.999Z,69.69
2023-12-21T19:23:41.812Z,70.19
2023-12-21T19:26:10.209Z,70.57
2023-12-21T19:28:38.648Z,71.22
2023-12-21T19:31:09.689Z,70.80
2023-12-21T19:33:38.508Z,70.92
2023-12-21T19:36:07.642Z,71.36
2023-12-21T19:38:35.943Z,71.92
2023-12-21T19:41:04.123Z,71.90
2023-12-21T19:43:34.730Z,72.25
2023-12-21T19:46:03.228Z,71.77
2023-12-21T19:48:31.274Z,72.41
2023-12-21T19:50:59.842Z,71.79
2023-12-21T19:53:27.603Z,71.62
2023-12-21T19:55:55.757Z,72.53
2023-12-21T19:58:24.367Z,72.40
2023-12-21T20:00:53.106Z,71.88
2023-12-21T20:03:22.057Z,72.83
2023-12-21T20:05:49.669Z,73.50
2023-12-21T20:08:17.488Z,73.96
2023-12-21T20:10:45.688Z,73.52
2023-12-21T20:13:13.593Z,73.64
2023-12-21T20:15:41.828Z,72.56
2023-12-21T20:18:10.088Z,72.58
2023-12-21T20:20:38.446Z,71.90
2023-12-21T20:23:06.421Z,72.81
2023-12-21T20:25:36.522Z,72.28
2023-12-21T20:28:08.855Z,72.06
2023-12-21T20:30:37.841Z,72.47
2023-12-21T20:33:09.461Z,71.47
2023-12-21T20:35:39.109Z,72.15
2023-12-21T20:38:09.521Z,71.52
2023-12-21T20:40:37.681Z,71.33
2023-12-21T20:43:05.886Z,71.33
2023-12-21T20:45:33.718Z,71.26
2023-12-21T20:48:01.444Z,72.39
2023-12-21T20:50:29.765Z,71.88
2023-12-21T20:52:57.608Z,71.61
2023-12-21T20:55:25.373Z,71.52
2023-12-21T20:57:53.991Z,71.70
2023-12-21T21:00:21.571Z,71.77
2023-12-21T21:02:49.870Z,71.09
2023-12-21T21:05:17.525Z,71.09
2023-12-21T21:07:45.045Z,72.29
2023-12-21T21:10:12.505Z,73.14
2023-12-21T21:12:40.049Z,72.40
2023-12-21T21:15:07.335Z,72.86
2023-12-21T21:17:34.815Z,71.83
2023-12-21T21:20:04.319Z,71.81
2023-12-21T21:22:31.693Z,71.23
2023-12-21T21:24:59.118Z,71.41
2023-12-21T21:27:26.552Z,71.00
2023-12-21T21:29:53.788Z,71.00
2023-12-21T21:32:22.928Z,70.94
2023-12-21T21:34:50.443Z,69.88
2023-12-21T21:37:17.786Z,70.15
2023-12-21T21:39:45.365Z,70.53
2023-12-21T21:42:12.847Z,70.65
2023-12-21T21:44:40.029Z,70.98
2023-12-21T21:47:07.254Z,71.80
2023-12-21T21:49:34.949Z,71.29
2023-12-21T21:52:02.873Z,71.51
2023-12-21T21:54:30.066Z,71.46
2023-12-21T21:56:58.177Z,71.37
2023-12-21T21:59:25.357Z,70.17
2023-12-21T22:01:52.583Z,70.71
2023-12-21T22:04:20.658Z,70.37
2023-12-21T22:06:47.914Z,70.27
2023-12-21T22:09:15.156Z,69.73
2023-12-21T22:11:42.941Z,69.03
2023-12-21T22:14:11.667Z,69.45
2023-12-21T22:16:38.913Z,69.50
2023-12-21T22:19:06.412Z,68.11
2023-12-21T22:21:34.048Z,68.64
2023-12-21T22:24:02.015Z,68.01
2023-12-21T22:26:29.671Z,68.48
2023-12-21T22:28:56.907Z,67.46
2023-12-21T22:31:25.146Z,67.96
2023-12-21T22:33:52.876Z,67.83
2023-12-21T22:36:20.264Z,68.27
2023-12-21T22:38:47.556Z,68.20
2023-12-21T22:41:15.323Z,68.71
2023-12-21T22:43:43.695Z,68.32
2023-12-21T22:46:11.393Z,67.82
2023-12-21T22:48:39.216Z,68.01
2023-12-21T22:51:07.577Z,67.84
2023-12-21T22:53:34.744Z,68.00
2023-12-21T22:56:02.416Z,67.08
2023-12-21T22:58:29.682Z,68.12
2023-12-21T23:00:57.000Z,68.31
2023-12-21T23:03:24.524Z,67.59
2023-12-21T23:05:51.755Z,68.40
2023-12-21T23:08:18.976Z,68.70
2023-12-21T23:10:46.505Z,68.33
2023-12-21T23:13:18.542Z,66.64
2023-12-21T23:15:46.511Z,67.26
2023-12-21T23:18:16.900Z,66.84
2023-12-21T23:20:44.179Z,66.94
2023-12-21T23:23:11.646Z,67.19
2023-12-21T23:25:38.817Z,68.16
2023-12-21T23:28:06.013Z,67.35
2023-12-21T23:30:33.523Z,67.62
2023-12-21T23:33:00.840Z,67.56
2023-12-21T23:35:28.151Z,67.29
2023-12-21T23:37:56.220Z,67.88
2023-12-21T23:40:23.690Z,68.23
2023-12-21T23:42:51.278Z,68.27
2023-12-21T23:45:18.954Z,67.17
2023-12-21T23:47:46.372Z,68.02
2023-12-21T23:50:13.754Z,71.63
2023-12-21T23:52:41.448Z,73.96
2023-12-21T23:55:08.851Z,73.24
2023-12-21T23:57:36.037Z,72.29
